sensor_id;sensor_type;location;lat;lon;timestamp;P1;durP1;ratioP1;P2;durP2;ratioP2
10701;SDS011;5402;50.004;8.246;2022-07-25T00:01:51;7.00;;;6.30;;
10701;SDS011;5402;50.004;8.246;2022-07-25T00:04:18;6.97;;;6.07;;
10701;SDS011;5402;50.004;8.246;2022-07-25T00:06:45;8.25;;;6.38;;
10701;SDS011;5402;50.004;8.246;2022-07-25T00:09:14;6.95;;;6.25;;
10701;SDS011;5402;50.004;8.246;2022-07-25T00:11:41;6.63;;;6.03;;
10701;SDS011;5402;50.004;8.246;2022-07-25T00:14:07;7.15;;;6.45;;
10701;SDS011;5402;50.004;8.246;2022-07-25T00:16:36;7.43;;;6.25;;
10701;SDS011;5402;50.004;8.246;2022-07-25T00:19:03;7.35;;;6.07;;
10701;SDS011;5402;50.004;8.246;2022-07-25T00:21:30;7.22;;;5.93;;
10701;SDS011;5402;50.004;8.246;2022-07-25T00:23:57;6.10;;;5.60;;
10701;SDS011;5402;50.004;8.246;2022-07-25T00:26:24;6.53;;;5.93;;
10701;SDS011;5402;50.004;8.246;2022-07-25T00:28:51;6.53;;;5.43;;
10701;SDS011;5402;50.004;8.246;2022-07-25T00:31:17;6.55;;;5.95;;
10701;SDS011;5402;50.004;8.246;2022-07-25T00:33:45;7.05;;;6.15;;
10701;SDS011;5402;50.004;8.246;2022-07-25T00:36:14;7.05;;;6.35;;
10701;SDS011;5402;50.004;8.246;2022-07-25T00:38:42;8.40;;;6.35;;
10701;SDS011;5402;50.004;8.246;2022-07-25T00:41:09;7.07;;;5.78;;
10701;SDS011;5402;50.004;8.246;2022-07-25T00:43:36;7.47;;;6.70;;
10701;SDS011;5402;50.004;8.246;2022-07-25T00:46:03;6.43;;;5.72;;
10701;SDS011;5402;50.004;8.246;2022-07-25T00:48:30;7.22;;;6.40;;
10701;SDS011;5402;50.004;8.246;2022-07-25T00:50:58;7.00;;;5.95;;
10701;SDS011;5402;50.004;8.246;2022-07-25T00:53:26;6.68;;;5.97;;
10701;SDS011;5402;50.004;8.246;2022-07-25T00:55:54;7.05;;;6.30;;
10701;SDS011;5402;50.004;8.246;2022-07-25T00:58:21;6.72;;;6.13;;
10701;SDS011;5402;50.004;8.246;2022-07-25T01:00:48;10.43;;;6.40;;
10701;SDS011;5402;50.004;8.246;2022-07-25T01:03:14;6.43;;;5.78;;
10701;SDS011;5402;50.004;8.246;2022-07-25T01:05:41;7.15;;;6.20;;
10701;SDS011;5402;50.004;8.246;2022-07-25T01:08:10;7.70;;;6.90;;
10701;SDS011;5402;50.004;8.246;2022-07-25T01:10:37;6.40;;;5.80;;
10701;SDS011;5402;50.004;8.246;2022-07-25T01:13:04;8.50;;;6.35;;
10701;SDS011;5402;50.004;8.246;2022-07-25T01:15:32;6.40;;;5.80;;
10701;SDS011;5402;50.004;8.246;2022-07-25T01:17:59;6.97;;;5.70;;
10701;SDS011;5402;50.004;8.246;2022-07-25T01:20:27;7.50;;;5.88;;
10701;SDS011;5402;50.004;8.246;2022-07-25T01:22:56;6.60;;;5.95;;
10701;SDS011;5402;50.004;8.246;2022-07-25T01:25:23;7.88;;;6.20;;
10701;SDS011;5402;50.004;8.246;2022-07-25T01:27:51;7.03;;;5.78;;
10701;SDS011;5402;50.004;8.246;2022-07-25T01:30:19;7.03;;;5.72;;
10701;SDS011;5402;50.004;8.246;2022-07-25T01:32:46;6.95;;;6.03;;
10701;SDS011;5402;50.004;8.246;2022-07-25T01:35:15;6.20;;;5.60;;
10701;SDS011;5402;50.004;8.246;2022-07-25T01:37:43;6.53;;;5.93;;
10701;SDS011;5402;50.004;8.246;2022-07-25T01:40:12;6.88;;;5.65;;
10701;SDS011;5402;50.004;8.246;2022-07-25T01:42:39;6.45;;;5.85;;
10701;SDS011;5402;50.004;8.246;2022-07-25T01:45:07;6.35;;;5.75;;
10701;SDS011;5402;50.004;8.246;2022-07-25T01:47:35;7.18;;;6.18;;
10701;SDS011;5402;50.004;8.246;2022-07-25T01:50:03;6.72;;;5.95;;
10701;SDS011;5402;50.004;8.246;2022-07-25T01:52:31;6.00;;;5.40;;
10701;SDS011;5402;50.004;8.246;2022-07-25T01:54:59;6.47;;;5.80;;
10701;SDS011;5402;50.004;8.246;2022-07-25T01:57:28;5.97;;;5.38;;
10701;SDS011;5402;50.004;8.246;2022-07-25T01:59:54;7.60;;;6.53;;
10701;SDS011;5402;50.004;8.246;2022-07-25T02:02:21;7.18;;;6.25;;
10701;SDS011;5402;50.004;8.246;2022-07-25T02:04:50;6.40;;;5.80;;
10701;SDS011;5402;50.004;8.246;2022-07-25T02:07:16;7.22;;;5.82;;
10701;SDS011;5402;50.004;8.246;2022-07-25T02:09:43;9.25;;;6.30;;
10701;SDS011;5402;50.004;8.246;2022-07-25T02:12:11;6.65;;;5.85;;
10701;SDS011;5402;50.004;8.246;2022-07-25T02:14:38;7.43;;;5.90;;
10701;SDS011;5402;50.004;8.246;2022-07-25T02:17:05;6.32;;;5.70;;
10701;SDS011;5402;50.004;8.246;2022-07-25T02:19:33;8.57;;;5.75;;
10701;SDS011;5402;50.004;8.246;2022-07-25T02:22:00;6.68;;;5.97;;
10701;SDS011;5402;50.004;8.246;2022-07-25T02:24:26;8.50;;;6.70;;
10701;SDS011;5402;50.004;8.246;2022-07-25T02:26:53;7.30;;;6.20;;
10701;SDS011;5402;50.004;8.246;2022-07-25T02:29:21;7.28;;;5.90;;
10701;SDS011;5402;50.004;8.246;2022-07-25T02:31:48;6.38;;;5.65;;
10701;SDS011;5402;50.004;8.246;2022-07-25T02:34:16;7.33;;;6.00;;
10701;SDS011;5402;50.004;8.246;2022-07-25T02:36:45;7.22;;;5.90;;
10701;SDS011;5402;50.004;8.246;2022-07-25T02:39:12;6.72;;;6.03;;
10701;SDS011;5402;50.004;8.246;2022-07-25T02:41:38;8.67;;;6.47;;
10701;SDS011;5402;50.004;8.246;2022-07-25T02:44:05;7.45;;;6.03;;
10701;SDS011;5402;50.004;8.246;2022-07-25T02:46:33;7.00;;;6.03;;
10701;SDS011;5402;50.004;8.246;2022-07-25T02:49:00;7.28;;;6.40;;
10701;SDS011;5402;50.004;8.246;2022-07-25T02:51:27;9.30;;;6.77;;
10701;SDS011;5402;50.004;8.246;2022-07-25T02:53:54;6.60;;;5.90;;
10701;SDS011;5402;50.004;8.246;2022-07-25T02:56:20;7.35;;;6.65;;
10701;SDS011;5402;50.004;8.246;2022-07-25T02:58:48;7.30;;;6.37;;
10701;SDS011;5402;50.004;8.246;2022-07-25T03:01:14;7.23;;;5.67;;
10701;SDS011;5402;50.004;8.246;2022-07-25T03:03:42;6.97;;;5.90;;
10701;SDS011;5402;50.004;8.246;2022-07-25T03:06:10;8.60;;;6.17;;
10701;SDS011;5402;50.004;8.246;2022-07-25T03:08:37;7.22;;;6.53;;
10701;SDS011;5402;50.004;8.246;2022-07-25T03:11:04;6.73;;;5.97;;
10701;SDS011;5402;50.004;8.246;2022-07-25T03:13:31;7.03;;;6.33;;
10701;SDS011;5402;50.004;8.246;2022-07-25T03:15:58;8.33;;;6.63;;
10701;SDS011;5402;50.004;8.246;2022-07-25T03:18:27;7.97;;;6.20;;
10701;SDS011;5402;50.004;8.246;2022-07-25T03:20:55;8.67;;;6.80;;
10701;SDS011;5402;50.004;8.246;2022-07-25T03:23:21;7.70;;;6.90;;
10701;SDS011;5402;50.004;8.246;2022-07-25T03:25:52;7.00;;;6.30;;
10701;SDS011;5402;50.004;8.246;2022-07-25T03:28:19;7.05;;;5.90;;
10701;SDS011;5402;50.004;8.246;2022-07-25T03:30:46;7.90;;;7.10;;
10701;SDS011;5402;50.004;8.246;2022-07-25T03:33:13;8.20;;;6.90;;
10701;SDS011;5402;50.004;8.246;2022-07-25T03:35:39;12.20;;;7.00;;
10701;SDS011;5402;50.004;8.246;2022-07-25T03:38:08;8.17;;;6.63;;
10701;SDS011;5402;50.004;8.246;2022-07-25T03:40:35;8.53;;;7.33;;
10701;SDS011;5402;50.004;8.246;2022-07-25T03:43:03;8.30;;;6.40;;
10701;SDS011;5402;50.004;8.246;2022-07-25T03:45:30;7.50;;;6.70;;
10701;SDS011;5402;50.004;8.246;2022-07-25T03:47:57;6.30;;;5.70;;
10701;SDS011;5402;50.004;8.246;2022-07-25T03:50:23;7.03;;;6.07;;
10701;SDS011;5402;50.004;8.246;2022-07-25T03:52:53;7.97;;;6.03;;
10701;SDS011;5402;50.004;8.246;2022-07-25T03:55:23;8.53;;;6.30;;
10701;SDS011;5402;50.004;8.246;2022-07-25T03:57:50;9.77;;;6.37;;
10701;SDS011;5402;50.004;8.246;2022-07-25T04:00:17;9.63;;;6.93;;
10701;SDS011;5402;50.004;8.246;2022-07-25T04:02:43;8.30;;;6.93;;
10701;SDS011;5402;50.004;8.246;2022-07-25T04:05:10;6.73;;;6.03;;
10701;SDS011;5402;50.004;8.246;2022-07-25T04:07:37;10.13;;;6.67;;
10701;SDS011;5402;50.004;8.246;2022-07-25T04:10:04;9.70;;;6.43;;
10701;SDS011;5402;50.004;8.246;2022-07-25T04:12:33;12.57;;;7.40;;
10701;SDS011;5402;50.004;8.246;2022-07-25T04:15:01;10.70;;;6.53;;
10701;SDS011;5402;50.004;8.246;2022-07-25T04:17:28;11.30;;;6.93;;
10701;SDS011;5402;50.004;8.246;2022-07-25T04:19:55;10.70;;;7.00;;
10701;SDS011;5402;50.004;8.246;2022-07-25T04:22:22;10.00;;;6.37;;
10701;SDS011;5402;50.004;8.246;2022-07-25T04:24:49;7.10;;;6.30;;
10701;SDS011;5402;50.004;8.246;2022-07-25T04:27:16;7.90;;;6.80;;
10701;SDS011;5402;50.004;8.246;2022-07-25T04:29:44;9.23;;;6.57;;
10701;SDS011;5402;50.004;8.246;2022-07-25T04:32:26;11.30;;;6.63;;
10701;SDS011;5402;50.004;8.246;2022-07-25T04:34:53;8.83;;;6.53;;
10701;SDS011;5402;50.004;8.246;2022-07-25T04:37:19;6.80;;;6.10;;
10701;SDS011;5402;50.004;8.246;2022-07-25T04:39:46;8.47;;;6.20;;
10701;SDS011;5402;50.004;8.246;2022-07-25T04:42:13;9.97;;;6.40;;
10701;SDS011;5402;50.004;8.246;2022-07-25T04:44:45;7.20;;;6.50;;
10701;SDS011;5402;50.004;8.246;2022-07-25T04:47:11;8.57;;;6.97;;
10701;SDS011;5402;50.004;8.246;2022-07-25T04:49:38;7.50;;;5.87;;
10701;SDS011;5402;50.004;8.246;2022-07-25T04:52:05;9.17;;;7.17;;
10701;SDS011;5402;50.004;8.246;2022-07-25T04:54:31;9.70;;;6.78;;
10701;SDS011;5402;50.004;8.246;2022-07-25T04:56:58;9.47;;;7.07;;
10701;SDS011;5402;50.004;8.246;2022-07-25T04:59:25;8.57;;;6.63;;
10701;SDS011;5402;50.004;8.246;2022-07-25T05:01:53;10.95;;;6.75;;
10701;SDS011;5402;50.004;8.246;2022-07-25T05:04:19;8.82;;;6.47;;
10701;SDS011;5402;50.004;8.246;2022-07-25T05:06:46;11.55;;;6.57;;
10701;SDS011;5402;50.004;8.246;2022-07-25T05:09:13;8.10;;;6.55;;
10701;SDS011;5402;50.004;8.246;2022-07-25T05:11:40;7.28;;;6.55;;
10701;SDS011;5402;50.004;8.246;2022-07-25T05:14:06;10.25;;;7.13;;
10701;SDS011;5402;50.004;8.246;2022-07-25T05:16:34;7.68;;;6.10;;
10701;SDS011;5402;50.004;8.246;2022-07-25T05:19:02;9.07;;;6.45;;
10701;SDS011;5402;50.004;8.246;2022-07-25T05:21:29;10.80;;;6.03;;
10701;SDS011;5402;50.004;8.246;2022-07-25T05:23:57;7.60;;;6.00;;
10701;SDS011;5402;50.004;8.246;2022-07-25T05:26:24;7.45;;;5.70;;
10701;SDS011;5402;50.004;8.246;2022-07-25T05:28:50;6.55;;;5.85;;
10701;SDS011;5402;50.004;8.246;2022-07-25T05:31:17;9.45;;;5.93;;
10701;SDS011;5402;50.004;8.246;2022-07-25T05:33:44;12.45;;;6.03;;
10701;SDS011;5402;50.004;8.246;2022-07-25T05:36:12;9.50;;;6.00;;
10701;SDS011;5402;50.004;8.246;2022-07-25T05:38:38;6.72;;;5.93;;
10701;SDS011;5402;50.004;8.246;2022-07-25T05:41:05;8.32;;;6.60;;
10701;SDS011;5402;50.004;8.246;2022-07-25T05:43:33;8.32;;;6.30;;
10701;SDS011;5402;50.004;8.246;2022-07-25T05:46:00;7.05;;;6.40;;
10701;SDS011;5402;50.004;8.246;2022-07-25T05:48:27;6.78;;;6.10;;
10701;SDS011;5402;50.004;8.246;2022-07-25T05:50:54;6.82;;;6.13;;
10701;SDS011;5402;50.004;8.246;2022-07-25T05:53:24;7.07;;;5.75;;
10701;SDS011;5402;50.004;8.246;2022-07-25T05:55:51;9.82;;;6.32;;
10701;SDS011;5402;50.004;8.246;2022-07-25T05:58:18;7.63;;;6.28;;
10701;SDS011;5402;50.004;8.246;2022-07-25T06:00:45;7.80;;;6.25;;
10701;SDS011;5402;50.004;8.246;2022-07-25T06:03:14;6.95;;;6.28;;
10701;SDS011;5402;50.004;8.246;2022-07-25T06:05:41;9.18;;;6.85;;
10701;SDS011;5402;50.004;8.246;2022-07-25T06:08:08;8.68;;;6.35;;
10701;SDS011;5402;50.004;8.246;2022-07-25T06:10:36;8.23;;;6.30;;
10701;SDS011;5402;50.004;8.246;2022-07-25T06:13:03;9.07;;;7.78;;
10701;SDS011;5402;50.004;8.246;2022-07-25T06:15:30;8.00;;;6.90;;
10701;SDS011;5402;50.004;8.246;2022-07-25T06:17:57;7.35;;;6.30;;
10701;SDS011;5402;50.004;8.246;2022-07-25T06:20:25;9.43;;;6.30;;
10701;SDS011;5402;50.004;8.246;2022-07-25T06:22:51;8.13;;;6.45;;
10701;SDS011;5402;50.004;8.246;2022-07-25T06:25:18;7.28;;;6.57;;
10701;SDS011;5402;50.004;8.246;2022-07-25T06:27:47;8.77;;;7.10;;
10701;SDS011;5402;50.004;8.246;2022-07-25T06:30:13;9.57;;;6.57;;
10701;SDS011;5402;50.004;8.246;2022-07-25T06:32:40;6.97;;;6.35;;
10701;SDS011;5402;50.004;8.246;2022-07-25T06:35:07;7.65;;;6.85;;
10701;SDS011;5402;50.004;8.246;2022-07-25T06:37:35;10.45;;;6.55;;
10701;SDS011;5402;50.004;8.246;2022-07-25T06:40:03;7.45;;;6.35;;
10701;SDS011;5402;50.004;8.246;2022-07-25T06:42:30;7.28;;;6.50;;
10701;SDS011;5402;50.004;8.246;2022-07-25T06:45:02;7.80;;;6.70;;
10701;SDS011;5402;50.004;8.246;2022-07-25T06:47:30;9.48;;;6.40;;
10701;SDS011;5402;50.004;8.246;2022-07-25T06:49:57;7.43;;;6.72;;
10701;SDS011;5402;50.004;8.246;2022-07-25T06:52:24;6.88;;;6.10;;
10701;SDS011;5402;50.004;8.246;2022-07-25T06:54:50;7.40;;;6.32;;
10701;SDS011;5402;50.004;8.246;2022-07-25T06:57:17;6.95;;;6.25;;
10701;SDS011;5402;50.004;8.246;2022-07-25T06:59:44;7.78;;;6.45;;
10701;SDS011;5402;50.004;8.246;2022-07-25T07:02:12;9.13;;;6.75;;
10701;SDS011;5402;50.004;8.246;2022-07-25T07:04:39;7.75;;;6.50;;
10701;SDS011;5402;50.004;8.246;2022-07-25T07:07:06;7.68;;;6.88;;
10701;SDS011;5402;50.004;8.246;2022-07-25T07:09:33;8.82;;;6.40;;
10701;SDS011;5402;50.004;8.246;2022-07-25T07:11:59;7.43;;;6.55;;
10701;SDS011;5402;50.004;8.246;2022-07-25T07:14:26;7.30;;;6.40;;
10701;SDS011;5402;50.004;8.246;2022-07-25T07:16:53;8.20;;;6.57;;
10701;SDS011;5402;50.004;8.246;2022-07-25T07:19:21;8.63;;;6.32;;
10701;SDS011;5402;50.004;8.246;2022-07-25T07:21:48;12.77;;;7.03;;
10701;SDS011;5402;50.004;8.246;2022-07-25T07:24:15;7.63;;;6.55;;
10701;SDS011;5402;50.004;8.246;2022-07-25T07:26:42;9.15;;;6.55;;
10701;SDS011;5402;50.004;8.246;2022-07-25T07:29:09;9.95;;;7.00;;
10701;SDS011;5402;50.004;8.246;2022-07-25T07:31:36;10.75;;;6.97;;
10701;SDS011;5402;50.004;8.246;2022-07-25T07:34:02;7.82;;;7.03;;
10701;SDS011;5402;50.004;8.246;2022-07-25T07:36:31;7.90;;;6.20;;
10701;SDS011;5402;50.004;8.246;2022-07-25T07:38:57;7.93;;;6.60;;
10701;SDS011;5402;50.004;8.246;2022-07-25T07:41:24;8.52;;;7.38;;
10701;SDS011;5402;50.004;8.246;2022-07-25T07:43:51;7.85;;;6.85;;
10701;SDS011;5402;50.004;8.246;2022-07-25T07:46:17;8.60;;;6.97;;
10701;SDS011;5402;50.004;8.246;2022-07-25T07:48:44;8.82;;;7.50;;
10701;SDS011;5402;50.004;8.246;2022-07-25T07:51:11;12.88;;;7.35;;
10701;SDS011;5402;50.004;8.246;2022-07-25T07:53:39;8.85;;;7.32;;
10701;SDS011;5402;50.004;8.246;2022-07-25T07:56:24;9.32;;;7.13;;
10701;SDS011;5402;50.004;8.246;2022-07-25T07:58:50;10.35;;;8.32;;
10701;SDS011;5402;50.004;8.246;2022-07-25T08:01:17;10.60;;;7.72;;
10701;SDS011;5402;50.004;8.246;2022-07-25T08:03:44;9.05;;;7.07;;
10701;SDS011;5402;50.004;8.246;2022-07-25T08:06:10;9.68;;;7.75;;
10701;SDS011;5402;50.004;8.246;2022-07-25T08:08:37;8.07;;;7.22;;
10701;SDS011;5402;50.004;8.246;2022-07-25T08:11:05;10.63;;;8.00;;
10701;SDS011;5402;50.004;8.246;2022-07-25T08:13:32;11.27;;;8.80;;
10701;SDS011;5402;50.004;8.246;2022-07-25T08:16:00;9.43;;;8.10;;
10701;SDS011;5402;50.004;8.246;2022-07-25T08:18:28;8.52;;;7.63;;
10701;SDS011;5402;50.004;8.246;2022-07-25T08:20:56;8.35;;;7.43;;
10701;SDS011;5402;50.004;8.246;2022-07-25T08:23:24;8.23;;;7.30;;
10701;SDS011;5402;50.004;8.246;2022-07-25T08:25:51;9.93;;;8.15;;
10701;SDS011;5402;50.004;8.246;2022-07-25T08:28:20;9.27;;;7.65;;
10701;SDS011;5402;50.004;8.246;2022-07-25T08:30:46;9.63;;;7.97;;
10701;SDS011;5402;50.004;8.246;2022-07-25T08:33:13;11.00;;;8.27;;
10701;SDS011;5402;50.004;8.246;2022-07-25T08:35:44;11.23;;;8.43;;
10701;SDS011;5402;50.004;8.246;2022-07-25T08:38:11;8.77;;;7.63;;
10701;SDS011;5402;50.004;8.246;2022-07-25T08:40:38;9.32;;;8.23;;
10701;SDS011;5402;50.004;8.246;2022-07-25T08:43:05;8.23;;;7.50;;
10701;SDS011;5402;50.004;8.246;2022-07-25T08:45:37;8.70;;;7.80;;
10701;SDS011;5402;50.004;8.246;2022-07-25T08:48:08;7.75;;;6.82;;
10701;SDS011;5402;50.004;8.246;2022-07-25T08:50:35;7.47;;;6.78;;
10701;SDS011;5402;50.004;8.246;2022-07-25T08:53:04;9.57;;;7.18;;
10701;SDS011;5402;50.004;8.246;2022-07-25T08:55:30;8.88;;;6.70;;
10701;SDS011;5402;50.004;8.246;2022-07-25T08:57:57;7.80;;;7.00;;
10701;SDS011;5402;50.004;8.246;2022-07-25T09:00:25;7.68;;;6.88;;
10701;SDS011;5402;50.004;8.246;2022-07-25T09:02:55;7.28;;;6.57;;
10701;SDS011;5402;50.004;8.246;2022-07-25T09:05:23;7.22;;;6.53;;
10701;SDS011;5402;50.004;8.246;2022-07-25T09:07:52;7.07;;;6.38;;
10701;SDS011;5402;50.004;8.246;2022-07-25T09:10:21;8.70;;;6.63;;
10701;SDS011;5402;50.004;8.246;2022-07-25T09:12:49;8.32;;;6.65;;
10701;SDS011;5402;50.004;8.246;2022-07-25T09:15:28;7.10;;;6.40;;
10701;SDS011;5402;50.004;8.246;2022-07-25T09:17:57;9.48;;;6.80;;
10701;SDS011;5402;50.004;8.246;2022-07-25T09:20:35;7.70;;;6.60;;
10701;SDS011;5402;50.004;8.246;2022-07-25T09:23:04;7.40;;;6.60;;
10701;SDS011;5402;50.004;8.246;2022-07-25T09:25:32;7.35;;;6.75;;
10701;SDS011;5402;50.004;8.246;2022-07-25T09:28:08;7.72;;;6.97;;
10701;SDS011;5402;50.004;8.246;2022-07-25T09:30:38;7.80;;;6.82;;
10701;SDS011;5402;50.004;8.246;2022-07-25T09:33:07;7.32;;;6.65;;
10701;SDS011;5402;50.004;8.246;2022-07-25T09:35:35;6.95;;;6.25;;
10701;SDS011;5402;50.004;8.246;2022-07-25T09:38:08;6.90;;;6.28;;
10701;SDS011;5402;50.004;8.246;2022-07-25T09:40:35;9.68;;;6.90;;
10701;SDS011;5402;50.004;8.246;2022-07-25T09:43:03;7.93;;;6.65;;
10701;SDS011;5402;50.004;8.246;2022-07-25T09:45:30;7.95;;;6.97;;
10701;SDS011;5402;50.004;8.246;2022-07-25T09:47:57;8.07;;;7.22;;
10701;SDS011;5402;50.004;8.246;2022-07-25T09:50:27;7.97;;;7.22;;
10701;SDS011;5402;50.004;8.246;2022-07-25T09:52:55;8.07;;;6.55;;
10701;SDS011;5402;50.004;8.246;2022-07-25T09:55:23;7.47;;;6.72;;
10701;SDS011;5402;50.004;8.246;2022-07-25T09:57:50;9.68;;;6.82;;
10701;SDS011;5402;50.004;8.246;2022-07-25T10:00:18;7.00;;;6.35;;
10701;SDS011;5402;50.004;8.246;2022-07-25T10:02:48;7.82;;;6.85;;
10701;SDS011;5402;50.004;8.246;2022-07-25T10:05:19;7.43;;;6.80;;
10701;SDS011;5402;50.004;8.246;2022-07-25T10:07:56;7.43;;;6.75;;
10701;SDS011;5402;50.004;8.246;2022-07-25T10:10:25;7.55;;;6.80;;
10701;SDS011;5402;50.004;8.246;2022-07-25T10:13:00;7.20;;;6.50;;
10701;SDS011;5402;50.004;8.246;2022-07-25T10:15:38;7.30;;;6.60;;
10701;SDS011;5402;50.004;8.246;2022-07-25T10:18:09;7.68;;;6.88;;
10701;SDS011;5402;50.004;8.246;2022-07-25T10:20:38;7.47;;;6.20;;
10701;SDS011;5402;50.004;8.246;2022-07-25T10:23:15;7.45;;;6.72;;
10701;SDS011;5402;50.004;8.246;2022-07-25T10:25:46;7.60;;;6.90;;
10701;SDS011;5402;50.004;8.246;2022-07-25T10:28:15;7.45;;;6.80;;
10701;SDS011;5402;50.004;8.246;2022-07-25T10:30:45;11.82;;;6.60;;
10701;SDS011;5402;50.004;8.246;2022-07-25T10:33:12;6.88;;;6.28;;
10701;SDS011;5402;50.004;8.246;2022-07-25T10:35:41;7.75;;;6.95;;
10701;SDS011;5402;50.004;8.246;2022-07-25T10:38:09;6.65;;;6.05;;
10701;SDS011;5402;50.004;8.246;2022-07-25T10:40:37;7.07;;;6.43;;
10701;SDS011;5402;50.004;8.246;2022-07-25T10:43:08;11.95;;;6.32;;
10701;SDS011;5402;50.004;8.246;2022-07-25T10:45:37;6.70;;;6.05;;
10701;SDS011;5402;50.004;8.246;2022-07-25T10:48:06;7.50;;;6.65;;
10701;SDS011;5402;50.004;8.246;2022-07-25T10:50:49;12.38;;;6.47;;
10701;SDS011;5402;50.004;8.246;2022-07-25T10:53:30;20.77;;;6.95;;
10701;SDS011;5402;50.004;8.246;2022-07-25T10:56:01;8.35;;;6.65;;
10701;SDS011;5402;50.004;8.246;2022-07-25T10:58:39;7.10;;;6.40;;
10701;SDS011;5402;50.004;8.246;2022-07-25T11:01:08;7.70;;;5.25;;
10701;SDS011;5402;50.004;8.246;2022-07-25T11:03:38;5.13;;;4.72;;
10701;SDS011;5402;50.004;8.246;2022-07-25T11:06:07;6.85;;;5.13;;
10701;SDS011;5402;50.004;8.246;2022-07-25T11:08:33;5.15;;;4.70;;
10701;SDS011;5402;50.004;8.246;2022-07-25T11:11:00;5.20;;;4.70;;
10701;SDS011;5402;50.004;8.246;2022-07-25T11:13:27;6.40;;;5.10;;
10701;SDS011;5402;50.004;8.246;2022-07-25T11:15:57;5.20;;;4.80;;
10701;SDS011;5402;50.004;8.246;2022-07-25T11:18:30;5.10;;;4.60;;
10701;SDS011;5402;50.004;8.246;2022-07-25T11:20:58;8.40;;;4.68;;
10701;SDS011;5402;50.004;8.246;2022-07-25T11:23:27;6.45;;;5.20;;
10701;SDS011;5402;50.004;8.246;2022-07-25T11:26:02;6.35;;;5.15;;
10701;SDS011;5402;50.004;8.246;2022-07-25T11:28:36;5.35;;;4.75;;
10701;SDS011;5402;50.004;8.246;2022-07-25T11:31:08;5.90;;;5.20;;
10701;SDS011;5402;50.004;8.246;2022-07-25T11:33:36;5.70;;;5.07;;
10701;SDS011;5402;50.004;8.246;2022-07-25T11:36:03;5.57;;;5.07;;
10701;SDS011;5402;50.004;8.246;2022-07-25T11:38:32;5.32;;;4.82;;
10701;SDS011;5402;50.004;8.246;2022-07-25T11:40:59;5.80;;;4.30;;
10701;SDS011;5402;50.004;8.246;2022-07-25T11:43:26;6.55;;;5.38;;
10701;SDS011;5402;50.004;8.246;2022-07-25T11:45:56;7.43;;;4.65;;
10701;SDS011;5402;50.004;8.246;2022-07-25T11:48:31;5.25;;;4.75;;
10701;SDS011;5402;50.004;8.246;2022-07-25T11:51:09;5.55;;;5.05;;
10701;SDS011;5402;50.004;8.246;2022-07-25T11:53:40;7.10;;;5.57;;
10701;SDS011;5402;50.004;8.246;2022-07-25T11:56:12;6.38;;;5.05;;
10701;SDS011;5402;50.004;8.246;2022-07-25T11:58:43;5.10;;;4.65;;
10701;SDS011;5402;50.004;8.246;2022-07-25T12:01:21;10.95;;;5.10;;
10701;SDS011;5402;50.004;8.246;2022-07-25T12:03:48;6.00;;;5.47;;
10701;SDS011;5402;50.004;8.246;2022-07-25T12:06:16;5.57;;;5.13;;
10701;SDS011;5402;50.004;8.246;2022-07-25T12:08:44;6.60;;;4.93;;
10701;SDS011;5402;50.004;8.246;2022-07-25T12:11:18;7.35;;;5.05;;
10701;SDS011;5402;50.004;8.246;2022-07-25T12:13:46;5.55;;;4.90;;
10701;SDS011;5402;50.004;8.246;2022-07-25T12:16:13;5.57;;;5.07;;
10701;SDS011;5402;50.004;8.246;2022-07-25T12:18:41;7.40;;;4.80;;
10701;SDS011;5402;50.004;8.246;2022-07-25T12:21:08;5.60;;;4.80;;
10701;SDS011;5402;50.004;8.246;2022-07-25T12:23:35;6.05;;;5.30;;
10701;SDS011;5402;50.004;8.246;2022-07-25T12:26:04;5.38;;;4.97;;
10701;SDS011;5402;50.004;8.246;2022-07-25T12:28:31;6.82;;;5.60;;
10701;SDS011;5402;50.004;8.246;2022-07-25T12:30:58;6.25;;;5.65;;
10701;SDS011;5402;50.004;8.246;2022-07-25T12:33:24;6.15;;;5.60;;
10701;SDS011;5402;50.004;8.246;2022-07-25T12:35:51;6.78;;;5.43;;
10701;SDS011;5402;50.004;8.246;2022-07-25T12:38:18;5.38;;;4.88;;
10701;SDS011;5402;50.004;8.246;2022-07-25T12:40:45;7.47;;;5.18;;
10701;SDS011;5402;50.004;8.246;2022-07-25T12:43:13;5.60;;;5.05;;
10701;SDS011;5402;50.004;8.246;2022-07-25T12:45:40;5.75;;;5.13;;
10701;SDS011;5402;50.004;8.246;2022-07-25T12:48:07;6.80;;;4.95;;
10701;SDS011;5402;50.004;8.246;2022-07-25T12:50:34;6.95;;;5.47;;
10701;SDS011;5402;50.004;8.246;2022-07-25T12:53:01;5.63;;;5.13;;
10701;SDS011;5402;50.004;8.246;2022-07-25T12:55:28;5.40;;;4.90;;
10701;SDS011;5402;50.004;8.246;2022-07-25T12:57:55;7.68;;;5.00;;
10701;SDS011;5402;50.004;8.246;2022-07-25T13:00:23;7.25;;;5.18;;
10701;SDS011;5402;50.004;8.246;2022-07-25T13:02:58;6.43;;;4.60;;
10701;SDS011;5402;50.004;8.246;2022-07-25T13:05:24;5.13;;;4.63;;
10701;SDS011;5402;50.004;8.246;2022-07-25T13:07:51;5.93;;;5.03;;
10701;SDS011;5402;50.004;8.246;2022-07-25T13:10:19;20.00;;;6.07;;
10701;SDS011;5402;50.004;8.246;2022-07-25T13:12:45;4.85;;;4.45;;
10701;SDS011;5402;50.004;8.246;2022-07-25T13:15:13;6.47;;;5.00;;
10701;SDS011;5402;50.004;8.246;2022-07-25T13:17:41;9.10;;;5.35;;
10701;SDS011;5402;50.004;8.246;2022-07-25T13:20:08;5.70;;;5.20;;
10701;SDS011;5402;50.004;8.246;2022-07-25T13:22:37;8.43;;;5.20;;
10701;SDS011;5402;50.004;8.246;2022-07-25T13:25:04;5.50;;;4.57;;
10701;SDS011;5402;50.004;8.246;2022-07-25T13:27:33;6.13;;;5.05;;
10701;SDS011;5402;50.004;8.246;2022-07-25T13:30:02;7.07;;;4.90;;
10701;SDS011;5402;50.004;8.246;2022-07-25T13:32:31;39.22;;;6.55;;
10701;SDS011;5402;50.004;8.246;2022-07-25T13:34:59;8.27;;;5.80;;
10701;SDS011;5402;50.004;8.246;2022-07-25T13:37:25;6.05;;;5.45;;
10701;SDS011;5402;50.004;8.246;2022-07-25T13:39:54;9.95;;;5.10;;
10701;SDS011;5402;50.004;8.246;2022-07-25T13:42:20;6.10;;;5.10;;
10701;SDS011;5402;50.004;8.246;2022-07-25T13:44:47;6.10;;;5.53;;
10701;SDS011;5402;50.004;8.246;2022-07-25T13:47:14;5.53;;;5.10;;
10701;SDS011;5402;50.004;8.246;2022-07-25T13:49:40;8.85;;;5.53;;
10701;SDS011;5402;50.004;8.246;2022-07-25T13:52:09;6.10;;;5.38;;
10701;SDS011;5402;50.004;8.246;2022-07-25T13:54:36;5.95;;;5.40;;
10701;SDS011;5402;50.004;8.246;2022-07-25T13:57:04;5.95;;;5.40;;
10701;SDS011;5402;50.004;8.246;2022-07-25T13:59:30;16.17;;;6.47;;
10701;SDS011;5402;50.004;8.246;2022-07-25T14:01:57;7.28;;;5.28;;
10701;SDS011;5402;50.004;8.246;2022-07-25T14:04:24;6.05;;;5.15;;
10701;SDS011;5402;50.004;8.246;2022-07-25T14:06:51;5.35;;;4.95;;
10701;SDS011;5402;50.004;8.246;2022-07-25T14:09:20;5.53;;;4.95;;
10701;SDS011;5402;50.004;8.246;2022-07-25T14:11:47;6.80;;;5.85;;
10701;SDS011;5402;50.004;8.246;2022-07-25T14:14:14;5.93;;;5.32;;
10701;SDS011;5402;50.004;8.246;2022-07-25T14:16:41;5.47;;;4.90;;
10701;SDS011;5402;50.004;8.246;2022-07-25T14:19:08;8.27;;;5.55;;
10701;SDS011;5402;50.004;8.246;2022-07-25T14:21:35;9.38;;;5.82;;
10701;SDS011;5402;50.004;8.246;2022-07-25T14:24:02;6.13;;;5.40;;
10701;SDS011;5402;50.004;8.246;2022-07-25T14:26:31;12.45;;;5.35;;
10701;SDS011;5402;50.004;8.246;2022-07-25T14:28:58;5.38;;;4.70;;
10701;SDS011;5402;50.004;8.246;2022-07-25T14:31:25;7.95;;;5.55;;
10701;SDS011;5402;50.004;8.246;2022-07-25T14:33:52;6.85;;;5.45;;
10701;SDS011;5402;50.004;8.246;2022-07-25T14:36:19;6.05;;;5.00;;
10701;SDS011;5402;50.004;8.246;2022-07-25T14:38:46;6.18;;;5.18;;
10701;SDS011;5402;50.004;8.246;2022-07-25T14:41:13;5.43;;;4.88;;
10701;SDS011;5402;50.004;8.246;2022-07-25T14:43:41;5.75;;;5.05;;
10701;SDS011;5402;50.004;8.246;2022-07-25T14:46:08;13.88;;;5.25;;
10701;SDS011;5402;50.004;8.246;2022-07-25T14:48:35;5.78;;;5.15;;
10701;SDS011;5402;50.004;8.246;2022-07-25T14:51:02;6.30;;;4.90;;
10701;SDS011;5402;50.004;8.246;2022-07-25T14:53:29;5.47;;;4.97;;
10701;SDS011;5402;50.004;8.246;2022-07-25T14:55:56;5.22;;;4.82;;
10701;SDS011;5402;50.004;8.246;2022-07-25T14:58:23;8.57;;;5.60;;
10701;SDS011;5402;50.004;8.246;2022-07-25T15:00:51;5.55;;;5.00;;
10701;SDS011;5402;50.004;8.246;2022-07-25T15:03:18;6.38;;;4.60;;
10701;SDS011;5402;50.004;8.246;2022-07-25T15:05:45;22.55;;;6.28;;